createdAt,value
2023-04-06T00:01:21.147Z,12.60
2023-04-06T00:03:51.008Z,11.40
2023-04-06T00:06:19.975Z,13.20
2023-04-06T00:08:48.963Z,13.50
2023-04-06T00:11:18.122Z,15.40
2023-04-06T00:13:47.352Z,13.50
2023-04-06T00:16:16.252Z,12.60
2023-04-06T00:18:44.674Z,14.70
2023-04-06T00:21:14.354Z,14.30
2023-04-06T00:23:42.860Z,11.60
2023-04-06T00:26:11.858Z,10.20
2023-04-06T00:28:41.211Z,9.80
2023-04-06T00:31:09.515Z,9.90
2023-04-06T00:33:38.602Z,8.40
2023-04-06T00:36:07.215Z,11.40
2023-04-06T00:38:36.003Z,10.10
2023-04-06T00:41:05.082Z,9.40
2023-04-06T00:43:34.677Z,9.50
2023-04-06T00:46:03.112Z,8.60
2023-04-06T00:51:06.159Z,9.60
2023-04-06T00:53:35.006Z,10.30
2023-04-06T00:56:04.306Z,9.80
2023-04-06T00:58:41.732Z,9.50
2023-04-06T01:01:10.525Z,10.30
2023-04-06T01:03:43.395Z,10.80
2023-04-06T01:06:13.530Z,11.80
2023-04-06T01:08:42.936Z,12.20
2023-04-06T01:11:19.161Z,12.20
2023-04-06T01:13:47.960Z,10.90
2023-04-06T01:16:25.463Z,10.60
2023-04-06T01:19:14.504Z,12.30
2023-04-06T01:21:50.590Z,10.50
2023-04-06T01:24:41.955Z,10.60
2023-04-06T01:27:29.277Z,11.80
2023-04-06T01:30:18.512Z,11.20
2023-04-06T01:32:51.370Z,10.50
2023-04-06T01:35:27.316Z,10.90
2023-04-06T01:38:05.348Z,10.60
2023-04-06T01:40:35.655Z,11.10
2023-04-06T01:43:04.022Z,10.40
2023-04-06T01:45:36.960Z,10.40
2023-04-06T01:48:14.294Z,10.90
2023-04-06T01:50:43.802Z,10.50
2023-04-06T01:53:13.119Z,11.50
2023-04-06T01:55:42.936Z,12.20
2023-04-06T01:58:24.916Z,11.30
2023-04-06T02:00:53.917Z,12.80
2023-04-06T02:03:24.124Z,11.50
2023-04-06T02:06:00.137Z,12.10
2023-04-06T02:08:34.929Z,13.20
2023-04-06T02:11:03.687Z,13.10
2023-04-06T02:13:35.982Z,13.40
2023-04-06T02:16:05.084Z,13.20
2023-04-06T02:18:36.936Z,14.10
2023-04-06T02:21:05.762Z,14.30
2023-04-06T02:23:34.168Z,12.40
2023-04-06T02:26:02.544Z,12.50
2023-04-06T02:28:35.768Z,10.80
2023-04-06T02:31:04.319Z,10.20
2023-04-06T02:33:33.750Z,10.30
2023-04-06T02:36:02.533Z,10.60
2023-04-06T02:38:31.607Z,10.70
2023-04-06T02:41:01.725Z,11.60
2023-04-06T02:43:31.446Z,10.90
2023-04-06T02:46:15.680Z,10.30
2023-04-06T02:48:45.648Z,9.30
2023-04-06T02:51:16.218Z,9.80
2023-04-06T02:53:49.004Z,10.30
2023-04-06T02:56:18.025Z,9.50
2023-04-06T02:58:49.750Z,10.60
2023-04-06T03:01:18.502Z,10.70
2023-04-06T03:03:48.975Z,11.60
2023-04-06T03:08:57.184Z,8.80
2023-04-06T03:11:27.840Z,10.20
2023-04-06T03:13:56.525Z,9.60
2023-04-06T03:16:29.615Z,8.60
2023-04-06T03:18:59.583Z,8.80
2023-04-06T03:22:47.844Z,10.00
2023-04-06T03:25:17.979Z,9.10
2023-04-06T03:27:46.457Z,10.00
2023-04-06T03:30:20.062Z,7.20
2023-04-06T03:32:50.121Z,8.00
2023-04-06T03:35:19.615Z,7.80
2023-04-06T03:37:48.893Z,8.20
2023-04-06T03:40:17.266Z,6.10
2023-04-06T03:42:45.486Z,7.50
2023-04-06T03:45:18.379Z,7.30
2023-04-06T03:47:51.084Z,8.80
2023-04-06T03:50:21.509Z,6.10
2023-04-06T03:52:51.948Z,7.60
2023-04-06T03:55:21.034Z,7.20
2023-04-06T03:57:49.330Z,8.60
2023-04-06T04:00:19.037Z,7.30
2023-04-06T04:02:47.538Z,6.80
2023-04-06T04:05:16.033Z,6.80
2023-04-06T04:07:44.838Z,7.00
2023-04-06T04:10:14.810Z,7.00
2023-04-06T04:12:43.558Z,7.30
2023-04-06T04:15:16.513Z,7.30
2023-04-06T04:18:01.394Z,6.60
2023-04-06T04:20:32.587Z,5.80
2023-04-06T04:23:07.357Z,5.60
2023-04-06T04:25:37.966Z,6.00
2023-04-06T04:28:06.197Z,6.90
2023-04-06T04:30:34.395Z,7.90
2023-04-06T04:33:04.003Z,9.00
2023-04-06T04:35:32.758Z,8.50
2023-04-06T04:38:01.524Z,8.70
2023-04-06T04:40:30.300Z,8.40
2023-04-06T04:43:12.566Z,9.10
2023-04-06T04:45:42.958Z,8.40
2023-04-06T04:48:21.096Z,9.20
2023-04-06T04:50:56.528Z,9.80
2023-04-06T04:53:28.087Z,8.20
2023-04-06T04:56:00.382Z,8.10
2023-04-06T04:58:32.134Z,6.70
2023-04-06T05:01:01.615Z,7.00
2023-04-06T05:03:31.213Z,6.80
2023-04-06T05:06:03.129Z,7.30
2023-04-06T05:08:34.725Z,6.90
2023-04-06T05:11:03.676Z,7.50
2023-04-06T05:13:36.582Z,6.60
2023-04-06T05:16:09.850Z,6.90
2023-04-06T05:18:38.246Z,6.80
2023-04-06T05:21:07.323Z,6.80
2023-04-06T05:23:42.897Z,7.60
2023-04-06T05:26:11.186Z,7.20
2023-04-06T05:28:40.858Z,8.90
2023-04-06T05:31:12.925Z,9.30
2023-04-06T05:33:47.529Z,8.90
2023-04-06T05:36:20.939Z,9.20
2023-04-06T05:38:54.036Z,8.60
2023-04-06T05:41:38.265Z,10.50
2023-04-06T05:44:09.676Z,9.80
2023-04-06T05:46:38.707Z,9.60
2023-04-06T05:49:07.490Z,8.90
2023-04-06T05:51:37.060Z,9.00
2023-04-06T05:54:06.036Z,8.90
2023-04-06T05:56:34.356Z,9.50
2023-04-06T05:59:03.328Z,10.30
2023-04-06T06:01:33.634Z,8.50
2023-04-06T06:04:03.260Z,11.30
2023-04-06T06:06:33.721Z,8.90
2023-04-06T06:09:13.128Z,9.20
2023-04-06T06:11:47.406Z,10.10
2023-04-06T06:14:18.296Z,9.70
2023-04-06T06:16:50.107Z,9.60
2023-04-06T06:19:18.704Z,7.30
2023-04-06T06:21:47.591Z,8.60
2023-04-06T06:24:20.847Z,8.40
2023-04-06T06:26:50.281Z,8.60
2023-04-06T06:29:19.604Z,7.50
2023-04-06T06:31:48.932Z,8.20
2023-04-06T06:34:20.154Z,8.80
2023-04-06T06:36:52.975Z,7.90
2023-04-06T06:39:22.341Z,9.10
2023-04-06T06:41:51.655Z,8.90
2023-04-06T06:44:23.747Z,9.90
2023-04-06T06:46:56.891Z,8.80
2023-04-06T06:49:25.416Z,8.80
2023-04-06T06:51:53.825Z,7.10
2023-04-06T06:54:22.472Z,7.60
2023-04-06T06:56:51.149Z,8.50
2023-04-06T06:59:23.270Z,7.80
2023-04-06T07:01:52.744Z,7.60
2023-04-06T07:04:21.911Z,7.30
2023-04-06T07:06:53.969Z,7.10
2023-04-06T07:09:23.048Z,7.60
2023-04-06T07:11:51.380Z,7.90
2023-04-06T07:14:21.892Z,7.10
2023-04-06T07:16:52.164Z,6.00
2023-04-06T07:19:21.184Z,6.10
2023-04-06T07:21:53.160Z,5.10
2023-04-06T07:24:22.203Z,5.10
2023-04-06T07:26:55.981Z,5.10
2023-04-06T07:29:24.465Z,6.40
2023-04-06T07:31:53.783Z,5.40
2023-04-06T07:34:22.879Z,6.20
2023-04-06T07:36:53.987Z,5.60
2023-04-06T07:51:18.826Z,5.10
2023-04-06T07:53:49.701Z,4.30
2023-04-06T07:56:19.007Z,5.30
2023-04-06T07:58:56.741Z,4.10
2023-04-06T08:01:28.656Z,4.00
2023-04-06T08:03:57.967Z,3.80
2023-04-06T08:06:26.381Z,3.90
2023-04-06T08:09:00.224Z,2.80
2023-04-06T08:11:29.258Z,3.10
2023-04-06T08:13:59.693Z,3.70
2023-04-06T08:16:29.166Z,3.20
2023-04-06T08:18:58.851Z,3.10
2023-04-06T08:21:28.080Z,3.90
2023-04-06T08:23:56.749Z,3.20
2023-04-06T08:26:26.591Z,5.00
2023-04-06T08:28:55.111Z,4.80
2023-04-06T08:31:23.434Z,4.10
2023-04-06T08:33:53.031Z,4.80
2023-04-06T08:36:24.235Z,7.90
2023-04-06T08:38:53.632Z,7.30
2023-04-06T08:41:22.221Z,7.90
2023-04-06T08:43:55.969Z,7.80
2023-04-06T08:46:31.982Z,7.80
2023-04-06T08:49:03.555Z,7.20
2023-04-06T08:51:33.054Z,6.50
2023-04-06T08:54:03.955Z,7.60
2023-04-06T08:56:35.337Z,6.30
2023-04-06T08:59:04.038Z,5.10
2023-04-06T09:01:36.100Z,5.30
2023-04-06T09:04:10.677Z,6.30
2023-04-06T09:06:39.640Z,6.20
2023-04-06T09:09:08.464Z,5.70
2023-04-06T09:12:07.081Z,4.90
2023-04-06T09:14:41.791Z,5.50
2023-04-06T09:17:10.637Z,5.80
2023-04-06T09:19:49.624Z,4.70
2023-04-06T09:22:19.353Z,3.80
2023-04-06T09:24:50.681Z,3.70
2023-04-06T09:27:40.070Z,3.20
2023-04-06T09:30:17.161Z,2.80
2023-04-06T09:32:57.146Z,3.00
2023-04-06T09:35:28.029Z,4.00
2023-04-06T09:37:57.198Z,4.30
2023-04-06T09:40:26.410Z,5.40
2023-04-06T09:42:59.696Z,4.00
2023-04-06T09:45:29.244Z,2.90
2023-04-06T09:48:01.097Z,2.90
2023-04-06T09:50:34.369Z,2.00
2023-04-06T09:53:02.715Z,1.60
2023-04-06T09:55:41.381Z,1.10
2023-04-06T09:58:20.501Z,1.10
2023-04-06T10:01:04.525Z,1.20
2023-04-06T10:06:05.967Z,1.90
2023-04-06T10:08:34.716Z,1.60
2023-04-06T10:11:04.828Z,1.90
2023-04-06T10:13:34.374Z,2.10
2023-04-06T10:16:10.012Z,2.70
2023-04-06T10:18:53.749Z,2.60
2023-04-06T10:21:25.170Z,2.30
2023-04-06T10:23:59.403Z,1.90
2023-04-06T10:28:56.672Z,2.20
2023-04-06T10:31:29.428Z,3.40
2023-04-06T10:33:59.429Z,3.80
2023-04-06T10:36:34.903Z,4.90
2023-04-06T10:39:05.496Z,2.90
2023-04-06T10:41:44.347Z,4.00
2023-04-06T10:44:23.166Z,2.40
2023-04-06T10:46:58.871Z,2.00
2023-04-06T10:49:27.960Z,1.90
2023-04-06T10:51:57.133Z,1.50
2023-04-06T10:54:27.187Z,1.30
2023-04-06T10:56:57.358Z,1.20
2023-04-06T10:59:29.333Z,1.00
2023-04-06T11:01:58.207Z,1.10
2023-04-06T11:04:28.456Z,2.30
2023-04-06T11:07:04.928Z,2.30
2023-04-06T11:09:34.317Z,2.60
2023-04-06T11:12:02.954Z,4.30
2023-04-06T11:14:31.645Z,4.90
2023-04-06T11:17:10.317Z,4.70
2023-04-06T11:20:11.992Z,4.50
2023-04-06T11:22:53.367Z,5.40
2023-04-06T11:25:22.164Z,5.00
2023-04-06T11:27:51.201Z,5.60
2023-04-06T11:30:36.123Z,5.80
2023-04-06T11:33:12.629Z,6.70
2023-04-06T11:35:47.444Z,5.20
2023-04-06T11:38:23.693Z,3.40
2023-04-06T11:41:02.540Z,2.00
2023-04-06T11:43:32.929Z,1.90
2023-04-06T11:46:04.826Z,1.00
2023-04-06T11:48:34.669Z,1.10
2023-04-06T11:51:05.091Z,0.60
2023-04-06T11:53:34.579Z,0.80
2023-04-06T11:56:02.928Z,0.90
2023-04-06T11:58:33.727Z,0.80
2023-04-06T12:01:06.152Z,0.70
2023-04-06T12:03:36.153Z,1.20
2023-04-06T12:06:05.410Z,1.40
2023-04-06T12:08:37.622Z,0.80
2023-04-06T12:11:06.087Z,0.60
2023-04-06T12:13:40.375Z,1.00
2023-04-06T12:16:09.198Z,1.20
2023-04-06T12:18:41.159Z,1.30
2023-04-06T12:21:11.974Z,1.80
2023-04-06T12:23:40.922Z,1.40
2023-04-06T12:26:13.354Z,3.00
2023-04-06T12:28:46.051Z,1.60
2023-04-06T12:31:18.048Z,1.00
2023-04-06T12:33:50.801Z,1.10
2023-04-06T12:36:25.221Z,1.10
2023-04-06T12:38:57.899Z,0.60
2023-04-06T12:41:26.782Z,1.30
2023-04-06T12:43:55.608Z,1.30
2023-04-06T12:46:24.473Z,1.50
2023-04-06T12:48:57.703Z,1.30
2023-04-06T12:51:32.638Z,0.80
2023-04-06T12:54:01.140Z,0.90
2023-04-06T12:56:30.040Z,1.00
2023-04-06T12:59:00.684Z,1.00
2023-04-06T13:01:30.261Z,1.40
2023-04-06T13:04:00.490Z,0.90
2023-04-06T13:06:35.252Z,1.50
2023-04-06T13:09:05.440Z,1.40
2023-04-06T13:11:34.675Z,1.20
2023-04-06T13:14:03.656Z,1.10
2023-04-06T13:16:35.075Z,1.20
2023-04-06T13:19:03.789Z,1.20
2023-04-06T13:21:34.893Z,1.00
2023-04-06T13:24:03.368Z,2.10
2023-04-06T13:26:31.709Z,1.80
2023-04-06T13:29:02.184Z,1.30
2023-04-06T13:31:30.752Z,6.60
2023-04-06T13:33:59.698Z,6.40
2023-04-06T13:36:28.177Z,6.60
2023-04-06T13:38:58.430Z,2.30
2023-04-06T13:41:27.670Z,3.10
2023-04-06T13:43:56.153Z,3.00
2023-04-06T13:46:26.685Z,2.50
2023-04-06T13:48:56.096Z,3.10
2023-04-06T13:51:24.931Z,2.20
2023-04-06T13:53:54.852Z,2.90
2023-04-06T13:56:23.383Z,3.10
2023-04-06T13:58:55.738Z,3.20
2023-04-06T14:01:24.430Z,2.60
2023-04-06T14:03:53.868Z,4.40
2023-04-06T14:06:31.161Z,4.40
2023-04-06T14:09:01.098Z,3.40
2023-04-06T14:11:33.084Z,3.40
2023-04-06T14:14:02.067Z,3.90
2023-04-06T14:16:30.823Z,2.20
2023-04-06T14:19:00.027Z,2.40
2023-04-06T14:21:28.859Z,1.70
2023-04-06T14:23:59.550Z,2.30
2023-04-06T14:26:28.829Z,3.20
2023-04-06T14:29:03.652Z,3.60
2023-04-06T14:31:32.706Z,3.30
2023-04-06T14:34:02.483Z,4.40
2023-04-06T14:36:37.561Z,2.00
2023-04-06T14:39:09.040Z,2.80
2023-04-06T14:41:38.625Z,1.60
2023-04-06T14:44:18.948Z,2.70
2023-04-06T14:46:47.660Z,1.50
2023-04-06T14:49:16.907Z,2.50
2023-04-06T14:51:45.378Z,3.10
2023-04-06T14:54:15.044Z,3.20
2023-04-06T14:56:44.316Z,2.80
2023-04-06T14:59:13.920Z,2.40
2023-04-06T15:01:43.302Z,2.10
2023-04-06T15:04:15.315Z,2.40
2023-04-06T15:06:44.200Z,2.20
2023-04-06T15:09:14.710Z,3.10
2023-04-06T15:11:43.123Z,7.40
2023-04-06T15:14:12.044Z,2.90
2023-04-06T15:16:48.074Z,4.90
2023-04-06T15:19:18.040Z,3.10
2023-04-06T15:21:46.787Z,3.30
2023-04-06T15:24:41.680Z,3.70
2023-04-06T15:27:12.569Z,3.20
2023-04-06T15:29:41.916Z,3.00
2023-04-06T15:32:10.600Z,3.90
2023-04-06T15:34:42.479Z,5.50
2023-04-06T15:39:20.227Z,4.20
2023-04-06T15:41:49.494Z,3.30
2023-04-06T15:44:19.520Z,3.50
2023-04-06T15:46:48.100Z,3.80
2023-04-06T15:49:20.591Z,3.30
2023-04-06T15:51:49.909Z,2.40
2023-04-06T15:54:21.614Z,3.30
2023-04-06T15:56:51.999Z,2.30
2023-04-06T15:59:25.129Z,3.60
2023-04-06T16:02:03.693Z,3.10
2023-04-06T16:04:42.077Z,2.70
2023-04-06T16:07:11.208Z,3.30
2023-04-06T16:09:43.911Z,3.50
2023-04-06T16:12:12.832Z,2.70
2023-04-06T16:14:43.343Z,3.60
2023-04-06T16:17:14.828Z,3.20
2023-04-06T16:19:55.337Z,3.30
2023-04-06T16:22:29.458Z,2.40
2023-04-06T16:24:59.281Z,2.70
2023-04-06T16:27:30.831Z,3.10
2023-04-06T16:30:06.686Z,2.50
2023-04-06T16:32:52.058Z,3.60
2023-04-06T16:37:55.805Z,3.30
2023-04-06T16:40:32.587Z,3.90
2023-04-06T16:43:01.677Z,4.60
2023-04-06T16:45:32.763Z,3.50
2023-04-06T16:48:04.265Z,3.70
2023-04-06T16:50:42.029Z,3.10
2023-04-06T16:53:18.425Z,4.10
2023-04-06T16:55:58.035Z,4.40
2023-04-06T16:58:26.844Z,5.40
2023-04-06T17:01:00.989Z,4.10
2023-04-06T17:03:31.795Z,5.50
2023-04-06T17:06:11.530Z,2.90
2023-04-06T17:08:42.821Z,2.80
2023-04-06T17:11:21.771Z,2.20
2023-04-06T17:13:59.707Z,3.10
2023-04-06T17:16:29.247Z,4.60
2023-04-06T17:18:58.361Z,5.10
2023-04-06T17:21:28.111Z,3.50
2023-04-06T17:23:56.617Z,3.40
2023-04-06T17:26:25.374Z,4.00
2023-04-06T17:28:54.332Z,4.40
2023-04-06T17:31:23.005Z,3.70
2023-04-06T17:33:56.293Z,3.40
2023-04-06T17:36:24.935Z,4.20
2023-04-06T17:39:00.064Z,4.20
2023-04-06T17:41:35.101Z,3.90
2023-04-06T17:44:03.775Z,4.20
2023-04-06T17:46:33.006Z,4.80
2023-04-06T17:49:02.450Z,4.80
2023-04-06T17:51:32.445Z,5.30
2023-04-06T17:54:04.306Z,5.50
2023-04-06T17:56:34.246Z,5.90
2023-04-06T17:59:11.243Z,8.80
2023-04-06T18:01:45.789Z,10.20
2023-04-06T18:04:15.293Z,5.50
2023-04-06T18:06:44.315Z,6.70
2023-04-06T18:09:19.452Z,7.80
2023-04-06T18:11:49.305Z,7.70
2023-04-06T18:14:18.306Z,8.50
2023-04-06T18:16:48.297Z,8.40
2023-04-06T18:19:22.245Z,8.40
2023-04-06T18:21:50.759Z,7.10
2023-04-06T18:24:37.619Z,7.50
2023-04-06T18:27:07.838Z,8.70
2023-04-06T18:29:39.671Z,8.40
2023-04-06T18:32:08.168Z,6.90
2023-04-06T18:34:36.582Z,7.00
2023-04-06T18:37:06.116Z,5.50
2023-04-06T18:39:34.688Z,6.20
2023-04-06T18:42:03.873Z,6.70
2023-04-06T18:44:32.480Z,7.00
2023-04-06T18:47:01.472Z,8.90
2023-04-06T18:49:33.214Z,8.90
2023-04-06T18:52:03.259Z,6.20
2023-04-06T18:54:31.987Z,6.40
2023-04-06T18:57:02.224Z,8.60
2023-04-06T18:59:31.944Z,5.30
2023-04-06T19:02:02.387Z,6.50
2023-04-06T19:04:31.031Z,7.10
2023-04-06T19:07:02.057Z,5.80
2023-04-06T19:09:31.104Z,6.80
2023-04-06T19:12:03.444Z,5.90
2023-04-06T19:14:33.121Z,6.20
2023-04-06T19:17:12.298Z,7.10
2023-04-06T19:19:41.708Z,10.60
2023-04-06T19:22:11.366Z,9.10
2023-04-06T19:24:42.784Z,8.10
2023-04-06T19:27:11.283Z,5.40
2023-04-06T19:29:48.089Z,6.00
2023-04-06T19:32:20.990Z,10.00
2023-04-06T19:34:55.357Z,8.50
2023-04-06T19:37:31.369Z,6.70
2023-04-06T19:40:12.754Z,6.10
2023-04-06T19:42:44.171Z,5.80
2023-04-06T19:45:15.209Z,4.80
2023-04-06T19:47:46.656Z,5.50
2023-04-06T19:50:21.901Z,5.20
2023-04-06T19:53:04.038Z,4.80
2023-04-06T19:55:38.713Z,6.10
2023-04-06T19:58:09.762Z,5.90
2023-04-06T20:00:40.877Z,7.90
2023-04-06T20:03:12.978Z,12.80
2023-04-06T20:05:43.771Z,9.30
2023-04-06T20:08:17.782Z,8.60
2023-04-06T20:10:48.665Z,8.60
2023-04-06T20:13:29.661Z,6.70
2023-04-06T20:16:08.491Z,8.10
2023-04-06T20:18:47.838Z,7.10
2023-04-06T20:21:21.874Z,9.60
2023-04-06T20:23:56.642Z,10.00
2023-04-06T20:26:29.866Z,7.10
2023-04-06T20:28:58.787Z,5.90
2023-04-06T20:31:33.215Z,5.30
2023-04-06T20:34:02.263Z,6.90
2023-04-06T20:36:35.739Z,6.60
2023-04-06T20:39:05.255Z,6.90
2023-04-06T20:41:39.024Z,8.50
2023-04-06T20:44:07.995Z,6.60
2023-04-06T20:46:37.265Z,6.90
2023-04-06T20:49:06.951Z,7.20
2023-04-06T20:51:35.846Z,6.30
2023-04-06T20:54:05.160Z,6.80
2023-04-06T20:56:35.072Z,5.80
2023-04-06T20:59:05.475Z,6.30
2023-04-06T21:01:34.264Z,5.40
2023-04-06T21:04:05.992Z,6.90
2023-04-06T21:06:34.391Z,5.60
2023-04-06T21:09:02.711Z,5.20
2023-04-06T21:11:31.469Z,5.40
2023-04-06T21:13:59.921Z,5.30
2023-04-06T21:16:34.909Z,5.10
2023-04-06T21:19:03.459Z,5.30
2023-04-06T21:21:31.759Z,7.50
2023-04-06T21:24:01.988Z,8.70
2023-04-06T21:26:31.112Z,9.70
2023-04-06T21:28:59.320Z,9.30
2023-04-06T21:31:29.720Z,8.70
2023-04-06T21:33:59.096Z,8.30
2023-04-06T21:36:27.343Z,11.50
2023-04-06T21:38:56.111Z,10.80
2023-04-06T21:41:24.502Z,13.00
2023-04-06T21:43:53.394Z,11.30
2023-04-06T21:46:22.047Z,8.60
2023-04-06T21:48:51.071Z,9.50
2023-04-06T21:51:20.560Z,11.50
2023-04-06T21:53:49.156Z,12.70
2023-04-06T21:56:24.762Z,14.00
2023-04-06T21:58:55.741Z,12.20
2023-04-06T22:01:23.954Z,11.70
2023-04-06T22:03:56.074Z,12.40
2023-04-06T22:06:26.044Z,11.90
2023-04-06T22:08:54.382Z,11.80
2023-04-06T22:11:26.491Z,13.50
2023-04-06T22:13:54.654Z,12.80
2023-04-06T22:16:23.165Z,26.20
2023-04-06T22:18:55.427Z,21.70
2023-04-06T22:21:23.670Z,14.30
2023-04-06T22:23:52.009Z,16.00
2023-04-06T22:26:21.383Z,14.60
2023-04-06T22:28:49.828Z,13.50
2023-04-06T22:31:18.385Z,14.90
2023-04-06T22:33:48.179Z,17.50
2023-04-06T22:36:17.028Z,16.00
2023-04-06T22:38:49.472Z,17.90
2023-04-06T22:41:17.749Z,22.80
2023-04-06T22:43:46.139Z,21.30
2023-04-06T22:46:14.782Z,22.20
2023-04-06T22:48:43.435Z,26.50
2023-04-06T22:51:11.830Z,23.20
2023-04-06T22:53:40.031Z,23.60
2023-04-06T22:56:08.484Z,25.80
2023-04-06T22:58:37.589Z,17.70
2023-04-06T23:01:08.543Z,12.00
2023-04-06T23:03:38.679Z,10.30
2023-04-06T23:06:07.248Z,10.40
2023-04-06T23:08:35.752Z,11.40
2023-04-06T23:11:04.345Z,10.80
2023-04-06T23:13:36.770Z,9.10
2023-04-06T23:16:05.829Z,6.40
2023-04-06T23:18:35.863Z,6.70
2023-04-06T23:21:07.961Z,7.30
2023-04-06T23:23:37.730Z,8.20
2023-04-06T23:26:06.259Z,8.70
2023-04-06T23:28:34.978Z,8.20
2023-04-06T23:31:03.239Z,10.70
2023-04-06T23:33:32.819Z,8.30
2023-04-06T23:36:01.495Z,8.10
2023-04-06T23:38:31.327Z,7.50
2023-04-06T23:40:59.771Z,6.10
2023-04-06T23:43:27.962Z,6.80
2023-04-06T23:45:57.503Z,6.60
2023-04-06T23:48:26.218Z,5.10
2023-04-06T23:50:54.577Z,5.90
2023-04-06T23:53:24.767Z,6.30
2023-04-06T23:55:53.452Z,5.70
2023-04-06T23:58:21.574Z,5.90
